createdAt,value
2023-01-21T00:01:20.522Z,5.90
2023-01-21T00:03:49.006Z,6.70
2023-01-21T00:06:17.338Z,6.20
2023-01-21T00:08:45.448Z,6.70
2023-01-21T00:11:15.872Z,6.20
2023-01-21T00:13:44.840Z,5.90
2023-01-21T00:16:13.764Z,6.00
2023-01-21T00:18:42.352Z,5.80
2023-01-21T00:21:10.721Z,5.80
2023-01-21T00:23:38.968Z,5.70
2023-01-21T00:26:09.111Z,6.20
2023-01-21T00:28:37.821Z,5.50
2023-01-21T00:31:09.212Z,5.20
2023-01-21T00:33:37.750Z,5.00
2023-01-21T00:36:08.671Z,5.30
2023-01-21T00:38:37.045Z,5.10
2023-01-21T00:41:08.694Z,5.50
2023-01-21T00:43:37.180Z,5.30
2023-01-21T00:46:06.127Z,5.10
2023-01-21T00:48:34.243Z,5.40
2023-01-21T00:51:02.439Z,5.20
2023-01-21T00:53:33.043Z,4.90
2023-01-21T00:56:03.275Z,5.00
2023-01-21T00:58:32.249Z,4.40
2023-01-21T01:01:05.814Z,3.90
2023-01-21T01:03:34.730Z,3.90
2023-01-21T01:06:09.163Z,3.40
2023-01-21T01:08:37.545Z,3.40
2023-01-21T01:11:06.703Z,3.30
2023-01-21T01:13:35.830Z,3.20
2023-01-21T01:16:05.165Z,2.90
2023-01-21T01:18:35.559Z,2.40
2023-01-21T01:21:05.425Z,2.60
2023-01-21T01:23:33.439Z,2.50
2023-01-21T01:26:03.997Z,2.60
2023-01-21T01:28:33.476Z,2.40
2023-01-21T01:31:03.966Z,2.50
2023-01-21T01:33:32.482Z,2.60
2023-01-21T01:36:06.405Z,2.40
2023-01-21T01:38:37.770Z,2.40
2023-01-21T01:41:06.507Z,2.20
2023-01-21T01:43:55.079Z,2.20
2023-01-21T01:46:24.577Z,2.10
2023-01-21T01:49:04.320Z,2.00
2023-01-21T01:51:40.689Z,2.30
2023-01-21T01:54:11.104Z,2.00
2023-01-21T01:56:43.419Z,2.00
2023-01-21T01:59:12.066Z,2.40
2023-01-21T02:01:40.188Z,2.00
2023-01-21T02:04:12.506Z,1.90
2023-01-21T02:06:41.454Z,1.80
2023-01-21T02:09:09.542Z,2.00
2023-01-21T02:11:37.647Z,2.10
2023-01-21T02:14:06.150Z,1.70
2023-01-21T02:16:53.240Z,1.50
2023-01-21T02:19:59.109Z,1.70
2023-01-21T02:22:55.026Z,1.50
2023-01-21T02:25:31.913Z,1.60
2023-01-21T02:28:25.157Z,1.50
2023-01-21T02:31:08.891Z,1.70
2023-01-21T02:33:54.375Z,1.80
2023-01-21T02:36:55.241Z,1.30
2023-01-21T02:40:00.973Z,1.80
2023-01-21T02:42:53.098Z,1.40
2023-01-21T02:45:35.623Z,1.50
2023-01-21T02:48:14.433Z,2.10
2023-01-21T02:50:50.308Z,1.80
2023-01-21T02:53:32.698Z,1.50
2023-01-21T02:56:08.339Z,1.50
2023-01-21T02:58:41.329Z,1.70
2023-01-21T03:01:18.176Z,1.70
2023-01-21T03:03:58.359Z,1.50
2023-01-21T03:06:52.951Z,1.50
2023-01-21T03:09:29.723Z,1.50
2023-01-21T03:12:36.297Z,1.80
2023-01-21T03:15:45.538Z,1.80
2023-01-21T03:18:26.607Z,2.00
2023-01-21T03:21:09.127Z,1.90
2023-01-21T03:23:41.893Z,2.30
2023-01-21T03:26:13.256Z,2.20
2023-01-21T03:28:48.175Z,2.40
2023-01-21T03:31:21.967Z,2.50
2023-01-21T03:33:53.619Z,2.70
2023-01-21T03:36:31.838Z,3.20
2023-01-21T03:39:05.936Z,3.20
2023-01-21T03:41:38.905Z,3.20
2023-01-21T03:44:07.216Z,3.40
2023-01-21T03:46:54.231Z,3.90
2023-01-21T03:49:41.193Z,4.00
2023-01-21T03:52:12.306Z,3.90
2023-01-21T03:54:41.174Z,4.10
2023-01-21T03:57:09.142Z,3.70
2023-01-21T03:59:37.215Z,4.20
2023-01-21T04:02:05.339Z,4.40
2023-01-21T04:04:33.765Z,4.40
2023-01-21T04:07:01.752Z,4.70
2023-01-21T04:09:29.739Z,4.80
2023-01-21T04:11:58.589Z,4.60
2023-01-21T04:14:26.666Z,5.00
2023-01-21T04:16:54.728Z,4.70
2023-01-21T04:19:22.698Z,4.80
2023-01-21T04:21:50.667Z,6.60
2023-01-21T04:24:18.742Z,5.00
2023-01-21T04:26:46.846Z,5.30
2023-01-21T04:29:14.881Z,4.80
2023-01-21T04:31:43.369Z,5.20
2023-01-21T04:34:11.637Z,5.10
2023-01-21T04:36:40.400Z,4.70
2023-01-21T04:39:08.491Z,4.90
2023-01-21T04:41:36.563Z,4.60
2023-01-21T04:44:04.837Z,4.80
2023-01-21T04:46:32.918Z,4.70
2023-01-21T04:49:00.880Z,4.70
2023-01-21T04:51:28.950Z,4.50
2023-01-21T04:53:56.919Z,4.70
2023-01-21T04:56:24.989Z,5.10
2023-01-21T04:58:53.066Z,5.10
2023-01-21T05:01:21.199Z,4.70
2023-01-21T05:03:49.314Z,4.70
2023-01-21T05:06:17.381Z,4.90
2023-01-21T05:08:45.477Z,5.20
2023-01-21T05:11:17.773Z,4.90
2023-01-21T05:13:45.888Z,4.90
2023-01-21T05:16:14.779Z,4.60
2023-01-21T05:18:44.569Z,4.90
2023-01-21T05:21:14.495Z,4.60
2023-01-21T05:23:42.577Z,4.20
2023-01-21T05:26:10.635Z,5.00
2023-01-21T05:28:38.606Z,4.70
2023-01-21T05:31:06.890Z,4.60
2023-01-21T05:33:36.193Z,4.90
2023-01-21T05:36:05.029Z,4.80
2023-01-21T05:38:33.049Z,4.60
2023-01-21T05:41:03.471Z,4.50
2023-01-21T05:43:32.019Z,4.20
2023-01-21T05:46:00.157Z,4.40
2023-01-21T05:48:29.720Z,4.30
2023-01-21T05:50:58.683Z,4.20
2023-01-21T05:53:27.918Z,4.30
2023-01-21T05:55:57.279Z,4.40
2023-01-21T05:58:26.013Z,4.10
2023-01-21T06:00:54.408Z,4.70
2023-01-21T06:03:22.517Z,4.20
2023-01-21T06:05:51.455Z,4.10
2023-01-21T06:08:19.787Z,3.90
2023-01-21T06:10:47.884Z,4.00
2023-01-21T06:13:16.361Z,3.60
2023-01-21T06:15:44.493Z,3.90
2023-01-21T06:18:12.609Z,3.50
2023-01-21T06:20:40.961Z,3.20
2023-01-21T06:23:09.166Z,3.70
2023-01-21T06:25:37.234Z,3.20
2023-01-21T06:28:05.300Z,2.80
2023-01-21T06:30:33.370Z,2.40
2023-01-21T06:33:01.352Z,2.00
2023-01-21T06:35:30.069Z,2.00
2023-01-21T06:37:58.197Z,2.00
2023-01-21T06:40:26.582Z,2.40
2023-01-21T06:42:54.649Z,2.20
2023-01-21T06:45:22.730Z,2.30
2023-01-21T06:47:50.804Z,2.10
2023-01-21T06:50:19.760Z,2.20
2023-01-21T06:52:48.785Z,2.20
2023-01-21T06:55:17.363Z,2.00
2023-01-21T06:57:45.332Z,2.20
2023-01-21T07:00:14.586Z,2.20
2023-01-21T07:02:42.828Z,2.60
2023-01-21T07:05:11.090Z,2.40
2023-01-21T07:07:39.110Z,2.50
2023-01-21T07:10:09.253Z,2.40
2023-01-21T07:12:37.347Z,2.70
2023-01-21T07:15:06.341Z,2.50
2023-01-21T07:17:34.343Z,2.40
2023-01-21T07:20:02.372Z,2.40
2023-01-21T07:22:30.339Z,2.40
2023-01-21T07:24:58.301Z,2.50
2023-01-21T07:27:26.855Z,2.40
2023-01-21T07:29:54.954Z,2.50
2023-01-21T07:32:23.120Z,2.30
2023-01-21T07:34:51.194Z,2.40
2023-01-21T07:37:19.266Z,2.20
2023-01-21T07:39:47.243Z,2.10
2023-01-21T07:42:15.203Z,2.10
2023-01-21T07:44:44.195Z,2.40
2023-01-21T07:47:12.366Z,2.50
2023-01-21T07:49:41.056Z,2.60
2023-01-21T07:52:09.124Z,2.60
2023-01-21T07:54:37.195Z,2.50
2023-01-21T07:57:05.165Z,2.50
2023-01-21T07:59:33.239Z,2.70
2023-01-21T08:02:01.420Z,2.40
2023-01-21T08:04:29.576Z,2.60
2023-01-21T08:06:58.946Z,2.30
2023-01-21T08:09:26.979Z,2.50
2023-01-21T08:11:55.026Z,2.40
2023-01-21T08:14:22.965Z,2.00
2023-01-21T08:16:50.956Z,2.30
2023-01-21T08:19:18.919Z,2.00
2023-01-21T08:21:46.890Z,2.40
2023-01-21T08:24:14.967Z,2.30
2023-01-21T08:26:43.032Z,2.30
2023-01-21T08:29:11.209Z,2.30
2023-01-21T08:31:39.295Z,2.20
2023-01-21T08:34:07.345Z,2.50
2023-01-21T08:36:35.413Z,2.20
2023-01-21T08:39:06.054Z,2.40
2023-01-21T08:41:34.322Z,2.30
2023-01-21T08:44:02.498Z,2.40
2023-01-21T08:46:30.683Z,2.20
2023-01-21T08:48:58.842Z,2.30
2023-01-21T08:51:26.912Z,2.30
2023-01-21T08:53:54.892Z,2.30
2023-01-21T08:56:22.952Z,2.20
2023-01-21T08:58:56.009Z,2.10
2023-01-21T09:01:25.356Z,2.20
2023-01-21T09:03:57.518Z,2.10
2023-01-21T09:06:27.423Z,2.30
2023-01-21T09:08:56.391Z,2.10
2023-01-21T09:11:27.238Z,2.50
2023-01-21T09:13:58.183Z,2.10
2023-01-21T09:16:26.279Z,2.10
2023-01-21T09:18:54.325Z,2.20
2023-01-21T09:21:22.396Z,2.40
2023-01-21T09:23:50.377Z,2.50
2023-01-21T09:26:20.686Z,2.50
2023-01-21T09:28:57.514Z,2.30
2023-01-21T09:31:27.200Z,2.30
2023-01-21T09:34:01.065Z,2.60
2023-01-21T09:36:30.996Z,2.20
2023-01-21T09:38:59.588Z,2.20
2023-01-21T09:41:33.994Z,2.40
2023-01-21T09:44:04.826Z,2.30
2023-01-21T09:46:43.143Z,2.30
2023-01-21T09:49:22.984Z,2.50
2023-01-21T09:51:52.924Z,2.40
2023-01-21T09:54:30.452Z,2.70
2023-01-21T09:57:19.146Z,2.50
2023-01-21T10:00:12.306Z,2.60
2023-01-21T10:03:04.552Z,2.50
2023-01-21T10:06:10.099Z,2.30
2023-01-21T10:08:46.989Z,2.50
2023-01-21T10:11:36.849Z,2.40
2023-01-21T10:14:26.325Z,2.70
2023-01-21T10:17:05.500Z,2.80
2023-01-21T10:19:44.576Z,2.30
2023-01-21T10:22:16.095Z,2.50
2023-01-21T10:24:51.881Z,2.30
2023-01-21T10:27:22.511Z,2.70
2023-01-21T10:29:56.930Z,2.80
2023-01-21T10:32:27.472Z,2.70
2023-01-21T10:34:57.824Z,2.80
2023-01-21T10:37:43.461Z,3.00
2023-01-21T10:40:46.461Z,3.10
2023-01-21T10:43:23.281Z,3.40
2023-01-21T10:45:56.227Z,2.90
2023-01-21T10:48:48.705Z,3.10
2023-01-21T10:51:22.899Z,3.40
2023-01-21T10:54:02.919Z,3.40
2023-01-21T10:56:48.913Z,3.50
2023-01-21T10:59:21.398Z,3.30
2023-01-21T11:01:54.866Z,3.70
2023-01-21T11:04:28.145Z,4.10
2023-01-21T11:07:09.459Z,4.00
2023-01-21T11:09:45.515Z,3.10
2023-01-21T11:12:18.414Z,3.70
2023-01-21T11:14:55.820Z,3.70
2023-01-21T11:17:39.217Z,3.50
2023-01-21T11:20:40.024Z,3.80
2023-01-21T11:23:29.722Z,4.00
2023-01-21T11:26:08.710Z,3.90
2023-01-21T11:28:38.106Z,3.80
2023-01-21T11:31:27.585Z,3.80
2023-01-21T11:34:03.998Z,3.90
2023-01-21T11:36:32.276Z,4.00
2023-01-21T11:39:09.549Z,3.50
2023-01-21T11:41:37.785Z,3.20
2023-01-21T11:44:20.602Z,3.20
2023-01-21T11:46:49.232Z,3.10
2023-01-21T11:49:21.709Z,3.10
2023-01-21T11:51:51.324Z,3.60
2023-01-21T11:54:24.189Z,2.90
2023-01-21T11:56:55.480Z,2.90
2023-01-21T11:59:47.642Z,2.80
2023-01-21T12:02:21.305Z,2.50
2023-01-21T12:04:55.908Z,2.60
2023-01-21T12:07:34.221Z,2.30
2023-01-21T12:10:11.188Z,2.00
2023-01-21T12:12:53.477Z,2.00
2023-01-21T12:15:44.672Z,2.00
2023-01-21T12:18:28.149Z,2.30
2023-01-21T12:21:03.316Z,2.00
2023-01-21T12:24:12.835Z,2.20
2023-01-21T12:26:47.471Z,2.20
2023-01-21T12:29:31.524Z,2.10
2023-01-21T12:32:10.106Z,2.30
2023-01-21T12:34:47.603Z,2.40
2023-01-21T12:37:37.086Z,2.20
2023-01-21T12:40:17.073Z,2.40
2023-01-21T12:42:53.606Z,2.10
2023-01-21T12:45:28.029Z,2.30
2023-01-21T12:48:04.884Z,2.00
2023-01-21T12:50:41.393Z,2.30
2023-01-21T12:53:19.640Z,2.20
2023-01-21T12:56:18.455Z,2.20
2023-01-21T12:58:55.309Z,2.40
2023-01-21T13:01:46.476Z,2.50
2023-01-21T13:04:52.431Z,2.60
2023-01-21T13:08:03.650Z,2.80
2023-01-21T13:10:39.201Z,2.80
2023-01-21T13:13:38.126Z,2.60
2023-01-21T13:16:09.275Z,3.00
2023-01-21T13:18:43.072Z,3.00
2023-01-21T13:21:28.325Z,2.80
2023-01-21T13:24:05.632Z,2.90
2023-01-21T13:26:41.384Z,2.80
2023-01-21T13:29:15.494Z,2.50
2023-01-21T13:32:07.473Z,2.60
2023-01-21T13:34:44.815Z,2.90
2023-01-21T13:37:24.997Z,2.60
2023-01-21T13:40:13.112Z,2.50
2023-01-21T13:42:51.831Z,2.90
2023-01-21T13:45:26.199Z,3.10
2023-01-21T13:48:10.190Z,2.90
2023-01-21T13:51:00.006Z,3.80
2023-01-21T13:54:05.520Z,3.20
2023-01-21T13:57:18.545Z,3.70
2023-01-21T13:59:49.683Z,3.40
2023-01-21T14:02:36.286Z,3.70
2023-01-21T14:05:23.071Z,3.30
2023-01-21T14:08:10.423Z,3.30
2023-01-21T14:11:12.491Z,3.70
2023-01-21T14:14:05.236Z,4.00
2023-01-21T14:16:53.074Z,3.60
2023-01-21T14:19:55.095Z,4.50
2023-01-21T14:22:47.173Z,4.10
2023-01-21T14:25:36.233Z,4.30
2023-01-21T14:28:19.057Z,3.30
2023-01-21T14:31:21.169Z,4.60
2023-01-21T14:34:05.686Z,5.00
2023-01-21T14:36:56.865Z,6.50
2023-01-21T14:39:48.407Z,5.20
2023-01-21T14:42:19.006Z,5.50
2023-01-21T14:44:49.773Z,5.90
2023-01-21T14:47:29.024Z,4.90
2023-01-21T14:49:59.328Z,4.90
2023-01-21T14:52:29.855Z,5.80
2023-01-21T14:54:59.370Z,5.40
2023-01-21T14:57:40.963Z,4.60
2023-01-21T15:00:20.586Z,5.50
2023-01-21T15:02:56.337Z,4.60
2023-01-21T15:05:27.829Z,4.30
2023-01-21T15:08:24.276Z,4.80
2023-01-21T15:11:06.453Z,4.40
2023-01-21T15:13:34.675Z,4.70
2023-01-21T15:16:19.428Z,4.30
2023-01-21T15:19:09.104Z,4.70
2023-01-21T15:21:43.571Z,4.50
2023-01-21T15:24:26.259Z,4.90
2023-01-21T15:27:14.736Z,4.80
2023-01-21T15:29:57.020Z,4.80
2023-01-21T15:32:40.457Z,4.40
2023-01-21T15:35:29.648Z,4.70
2023-01-21T15:38:25.036Z,5.00
2023-01-21T15:40:55.431Z,4.80
2023-01-21T15:43:39.912Z,4.80
2023-01-21T15:46:27.489Z,5.10
2023-01-21T15:49:28.174Z,4.60
2023-01-21T15:52:19.591Z,5.00
2023-01-21T15:55:00.477Z,5.20
2023-01-21T15:57:34.273Z,4.80
2023-01-21T16:00:08.431Z,4.90
2023-01-21T16:02:58.175Z,4.70
2023-01-21T16:05:59.257Z,5.00
2023-01-21T16:08:39.058Z,5.00
2023-01-21T16:11:15.417Z,4.90
2023-01-21T16:14:13.904Z,4.90
2023-01-21T16:17:07.675Z,4.90
2023-01-21T16:19:45.580Z,5.10
2023-01-21T16:22:20.689Z,5.20
2023-01-21T16:24:53.491Z,5.50
2023-01-21T16:27:27.432Z,5.00
2023-01-21T16:29:57.128Z,5.00
2023-01-21T16:32:27.092Z,4.90
2023-01-21T16:34:55.190Z,4.80
2023-01-21T16:37:25.529Z,5.00
2023-01-21T16:39:56.859Z,5.10
2023-01-21T16:42:32.823Z,4.90
2023-01-21T16:45:01.485Z,5.20
2023-01-21T16:47:37.409Z,5.30
2023-01-21T16:50:20.683Z,5.20
2023-01-21T16:52:50.009Z,5.30
2023-01-21T16:55:21.306Z,5.50
2023-01-21T16:57:51.551Z,5.40
2023-01-21T17:00:30.485Z,5.10
2023-01-21T17:02:59.996Z,5.00
2023-01-21T17:05:33.884Z,5.10
2023-01-21T17:08:09.750Z,5.00
2023-01-21T17:10:40.679Z,5.50
2023-01-21T17:13:16.093Z,5.10
2023-01-21T17:15:57.546Z,5.00
2023-01-21T17:18:30.594Z,5.40
2023-01-21T17:21:13.051Z,5.30
2023-01-21T17:24:04.787Z,5.60
2023-01-21T17:26:44.364Z,4.80
2023-01-21T17:29:33.015Z,5.60
2023-01-21T17:32:06.601Z,5.10
2023-01-21T17:34:36.685Z,4.90
2023-01-21T17:37:42.046Z,4.90
2023-01-21T17:40:25.715Z,5.10
2023-01-21T17:42:54.725Z,5.70
2023-01-21T17:45:30.631Z,5.90
2023-01-21T17:48:10.981Z,5.10
2023-01-21T17:50:46.674Z,5.90
2023-01-21T17:53:28.707Z,5.40
2023-01-21T17:56:06.186Z,5.50
2023-01-21T17:58:48.450Z,5.60
2023-01-21T18:01:17.792Z,5.50
2023-01-21T18:03:46.041Z,5.20
2023-01-21T18:06:20.863Z,5.30
2023-01-21T18:08:50.707Z,5.80
2023-01-21T18:11:19.185Z,5.90
2023-01-21T18:13:47.971Z,5.40
2023-01-21T18:16:16.228Z,5.60
2023-01-21T18:18:45.211Z,5.40
2023-01-21T18:21:21.390Z,5.30
2023-01-21T18:23:50.092Z,5.60
2023-01-21T18:26:26.594Z,5.40
2023-01-21T18:28:54.705Z,5.50
2023-01-21T18:31:23.254Z,5.90
2023-01-21T18:33:51.455Z,5.50
2023-01-21T18:36:19.629Z,5.30
2023-01-21T18:38:47.697Z,5.60
2023-01-21T18:41:15.769Z,5.60
2023-01-21T18:43:43.832Z,5.00
2023-01-21T18:46:13.828Z,5.00
2023-01-21T18:48:43.228Z,5.50
2023-01-21T18:51:12.840Z,5.30
2023-01-21T18:53:40.937Z,5.80
2023-01-21T18:56:13.684Z,5.60
2023-01-21T18:58:42.527Z,5.90
2023-01-21T19:01:22.735Z,5.70
2023-01-21T19:03:54.171Z,5.70
2023-01-21T19:06:24.009Z,5.70
2023-01-21T19:08:52.105Z,5.70
2023-01-21T19:11:20.248Z,5.50
2023-01-21T19:13:48.230Z,5.70
2023-01-21T19:16:18.642Z,5.80
2023-01-21T19:18:47.056Z,5.70
2023-01-21T19:21:15.208Z,6.20
2023-01-21T19:23:43.289Z,5.60
2023-01-21T19:26:13.914Z,6.20
2023-01-21T19:28:42.359Z,5.70
2023-01-21T19:31:10.459Z,5.80
2023-01-21T19:33:39.978Z,5.80
2023-01-21T19:36:17.619Z,5.80
2023-01-21T19:39:03.874Z,5.40
2023-01-21T19:41:32.633Z,5.40
2023-01-21T19:44:00.714Z,5.90
2023-01-21T19:46:29.061Z,5.70
2023-01-21T19:48:58.390Z,5.50
2023-01-21T19:51:27.901Z,5.80
2023-01-21T19:53:57.295Z,5.70
2023-01-21T19:56:25.489Z,5.80
2023-01-21T19:58:53.758Z,5.50
2023-01-21T20:01:21.917Z,5.30
2023-01-21T20:03:59.806Z,5.60
2023-01-21T20:06:34.845Z,5.60
2023-01-21T20:09:02.926Z,5.40
2023-01-21T20:11:30.989Z,5.10
2023-01-21T20:13:59.081Z,5.70
2023-01-21T20:16:27.392Z,5.50
2023-01-21T20:18:56.455Z,5.90
2023-01-21T20:21:24.614Z,5.50
2023-01-21T20:23:52.982Z,5.60
2023-01-21T20:26:26.131Z,5.80
2023-01-21T20:28:54.780Z,5.70
2023-01-21T20:31:23.041Z,5.70
2023-01-21T20:33:51.209Z,5.30
2023-01-21T20:36:22.749Z,5.80
2023-01-21T20:38:52.778Z,5.50
2023-01-21T20:41:21.192Z,5.90
2023-01-21T20:43:49.335Z,5.50
2023-01-21T20:46:27.443Z,5.40
2023-01-21T20:48:57.351Z,5.80
2023-01-21T20:51:25.950Z,6.00
2023-01-21T20:53:54.403Z,5.30
2023-01-21T20:56:28.293Z,5.50
2023-01-21T20:58:56.922Z,5.80
2023-01-21T21:01:27.064Z,5.30
2023-01-21T21:03:55.048Z,5.50
2023-01-21T21:06:27.306Z,5.60
2023-01-21T21:08:55.635Z,5.70
2023-01-21T21:11:23.707Z,5.40
2023-01-21T21:13:52.607Z,5.50
2023-01-21T21:16:26.407Z,5.50
2023-01-21T21:18:54.567Z,5.30
2023-01-21T21:21:23.981Z,5.70
2023-01-21T21:23:53.041Z,5.20
2023-01-21T21:26:24.229Z,5.40
2023-01-21T21:28:57.868Z,5.70
2023-01-21T21:31:32.088Z,5.40
2023-01-21T21:34:00.601Z,5.60
2023-01-21T21:36:28.681Z,5.70
2023-01-21T21:38:56.853Z,5.50
2023-01-21T21:41:44.841Z,5.40
2023-01-21T21:44:13.497Z,4.90
2023-01-21T21:47:00.276Z,5.30
2023-01-21T21:49:29.412Z,5.80
2023-01-21T21:52:00.307Z,6.10
2023-01-21T21:54:28.696Z,5.80
2023-01-21T21:56:57.232Z,5.60
2023-01-21T21:59:25.347Z,5.70
2023-01-21T22:01:53.431Z,5.50
2023-01-21T22:04:23.221Z,5.90
2023-01-21T22:06:51.190Z,5.80
2023-01-21T22:09:19.284Z,5.60
2023-01-21T22:11:47.435Z,5.80
2023-01-21T22:14:15.813Z,5.70
2023-01-21T22:16:44.561Z,5.50
2023-01-21T22:19:12.676Z,5.60
2023-01-21T22:21:40.739Z,6.10
2023-01-21T22:24:12.542Z,6.80
2023-01-21T22:26:40.573Z,5.70
2023-01-21T22:29:08.743Z,6.00
2023-01-21T22:31:36.780Z,6.30
2023-01-21T22:34:05.502Z,6.10
2023-01-21T22:36:33.680Z,5.60
2023-01-21T22:39:01.852Z,5.60
2023-01-21T22:41:30.223Z,5.80
2023-01-21T22:43:58.608Z,5.80
2023-01-21T22:46:31.535Z,5.40
2023-01-21T22:49:00.267Z,5.80
2023-01-21T22:51:28.433Z,5.80
2023-01-21T22:53:57.239Z,5.80
2023-01-21T22:56:40.232Z,6.50
2023-01-21T22:59:14.567Z,6.40
2023-01-21T23:01:43.011Z,6.00
2023-01-21T23:04:11.333Z,6.00
2023-01-21T23:06:39.576Z,5.70
2023-01-21T23:09:09.624Z,5.80
2023-01-21T23:11:40.246Z,5.90
2023-01-21T23:14:10.258Z,5.50
2023-01-21T23:16:38.552Z,5.70
2023-01-21T23:19:06.704Z,5.80
2023-01-21T23:21:36.017Z,5.60
2023-01-21T23:24:05.717Z,5.50
2023-01-21T23:26:33.808Z,5.70
2023-01-21T23:29:01.983Z,5.80
2023-01-21T23:31:30.107Z,5.80
2023-01-21T23:33:58.922Z,5.70
2023-01-21T23:36:26.881Z,5.70
2023-01-21T23:38:55.103Z,5.50
2023-01-21T23:41:23.243Z,5.80
2023-01-21T23:43:51.334Z,5.60
2023-01-21T23:46:22.098Z,5.40
2023-01-21T23:48:50.315Z,5.70
2023-01-21T23:51:19.042Z,5.40
2023-01-21T23:53:50.320Z,5.40
2023-01-21T23:56:21.869Z,5.60
2023-01-21T23:58:51.370Z,5.60
